PWSweather.com
Personal Weather Stations
Station Observations
BUCO1953
Cerklje Na GorenjskemSI

Cerklje Na GorenjskemSI

Lat: 46.2556, Lon: 14.5172

Elevation: 1312

Station Type: WS3600

High Low Average
Temperature 52.5°F11.4°C 27.1°F-2.7°C 36.7°F2.6°C
Dew Point 31.8°F-0.1°C 19.0°F-7.2°C 24.7°F-4.1°C
Winds 7.9 mph 12.7 kmh Calm Calm 1.0 mph SE1.6 kmh SE
Wind Gusts 11.8 mph19.0 kmh -- 3.0 mph4.8 kmh
Humidity 85% 30% 65%
Pressure 29.88 in1011.9 mb 29.62 in1003.0 mb -
Precipitation 0.00 in0.0 mm - -
Hour Temp Dew Point Humidity Winds Wind Gusts Pressure Precip Precip Rate Daily Precip Total
12:04 AM 31.6°F-0.2°C 25.9°F-3.4°C 79% Calm Calm 1.7 mph2.7 kmh 29.62 in1003.0 mb 0.00 in0.0 mm 0.00 in/hr0.0 mm/hr 0.00 in0.0 mm
12:09 AM 31.6°F-0.2°C 25.9°F-3.4°C 79% 1.5 mph E2.4 kmh E 1.7 mph2.7 kmh 29.62 in1003.0 mb 0.00 in0.0 mm 0.00 in/hr0.0 mm/hr 0.00 in0.0 mm
12:14 AM 31.8°F-0.1°C 26.0°F-3.3°C 80% 1.5 mph SSE2.4 kmh SSE 1.7 mph2.7 kmh 29.62 in1003.0 mb 0.00 in0.0 mm 0.00 in/hr0.0 mm/hr 0.00 in0.0 mm
12:19 AM 31.8°F-0.1°C 25.7°F-3.5°C 78% 0.6 mph WNW1.0 kmh WNW 1.5 mph2.4 kmh 29.63 in1003.4 mb 0.00 in0.0 mm 0.00 in/hr0.0 mm/hr 0.00 in0.0 mm
12:24 AM 31.6°F-0.2°C 25.9°F-3.4°C 79% 0.4 mph NNW0.6 kmh NNW 1.5 mph2.4 kmh 29.63 in1003.4 mb 0.00 in0.0 mm 0.00 in/hr0.0 mm/hr 0.00 in0.0 mm
12:29 AM 31.2°F-0.4°C 26.1°F-3.3°C 80% 1.6 mph E2.6 kmh E 1.7 mph2.7 kmh 29.62 in1003.0 mb 0.00 in0.0 mm 0.00 in/hr0.0 mm/hr 0.00 in0.0 mm
12:34 AM 31.4°F-0.3°C 25.7°F-3.5°C 79% 2.4 mph E3.9 kmh E 2.4 mph3.9 kmh 29.62 in1003.0 mb 0.00 in0.0 mm 0.00 in/hr0.0 mm/hr 0.00 in0.0 mm
12:39 AM 31.4°F-0.3°C 25.7°F-3.5°C 79% 0.4 mph NE0.6 kmh NE 2.4 mph3.9 kmh 29.62 in1003.0 mb 0.00 in0.0 mm 0.00 in/hr0.0 mm/hr 0.00 in0.0 mm
12:44 AM 31.2°F-0.4°C 25.5°F-3.6°C 79% 2.1 mph ENE3.4 kmh ENE 2.9 mph4.7 kmh 29.62 in1003.0 mb 0.00 in0.0 mm 0.00 in/hr0.0 mm/hr 0.00 in0.0 mm
12:49 AM 31.6°F-0.2°C 25.9°F-3.4°C 79% 2.9 mph E4.7 kmh E 3.3 mph5.3 kmh 29.62 in1003.0 mb 0.00 in0.0 mm 0.00 in/hr0.0 mm/hr 0.00 in0.0 mm
12:54 AM 31.6°F-0.2°C 25.9°F-3.4°C 79% Calm Calm 3.3 mph5.3 kmh 29.62 in1003.0 mb 0.00 in0.0 mm 0.00 in/hr0.0 mm/hr 0.00 in0.0 mm
12:59 AM 30.9°F-0.6°C 25.5°F-3.6°C 80% 0.4 mph SSW0.6 kmh SSW 2.2 mph3.5 kmh 29.63 in1003.4 mb 0.00 in0.0 mm 0.00 in/hr0.0 mm/hr 0.00 in0.0 mm
01:04 AM 30.3°F-0.9°C 25.2°F-3.8°C 81% Calm Calm 0.4 mph0.6 kmh 29.63 in1003.4 mb 0.00 in0.0 mm 0.00 in/hr0.0 mm/hr 0.00 in0.0 mm
01:11 AM 30.0°F-1.1°C 24.9°F-3.9°C 81% 0.4 mph 0.6 kmh 1.1 mph1.8 kmh 29.63 in1003.4 mb 0.00 in0.0 mm 0.00 in/hr0.0 mm/hr 0.00 in0.0 mm
01:16 AM 30.2°F-1.0°C 25.0°F-3.9°C 81% 1.5 mph ENE2.4 kmh ENE 1.5 mph2.4 kmh 29.63 in1003.4 mb 0.00 in0.0 mm 0.00 in/hr0.0 mm/hr 0.00 in0.0 mm
01:21 AM 30.3°F-0.9°C 25.2°F-3.8°C 82% 1.3 mph ENE2.1 kmh ENE 1.5 mph2.4 kmh 29.63 in1003.4 mb 0.00 in0.0 mm 0.00 in/hr0.0 mm/hr 0.00 in0.0 mm
01:26 AM 30.3°F-0.9°C 25.2°F-3.8°C 81% Calm Calm 1.3 mph2.1 kmh 29.63 in1003.4 mb 0.00 in0.0 mm 0.00 in/hr0.0 mm/hr 0.00 in0.0 mm
01:31 AM 30.0°F-1.1°C 24.9°F-3.9°C 81% 0.4 mph SSE0.6 kmh SSE 1.3 mph2.1 kmh 29.63 in1003.4 mb 0.00 in0.0 mm 0.00 in/hr0.0 mm/hr 0.00 in0.0 mm
01:36 AM 29.8°F-1.2°C 24.7°F-4.1°C 82% Calm Calm 0.4 mph0.6 kmh 29.63 in1003.4 mb 0.00 in0.0 mm 0.00 in/hr0.0 mm/hr 0.00 in0.0 mm
01:41 AM 30.0°F-1.1°C 25.4°F-3.7°C 83% 1.3 mph E2.1 kmh E 1.3 mph2.1 kmh 29.63 in1003.4 mb 0.00 in0.0 mm 0.00 in/hr0.0 mm/hr 0.00 in0.0 mm
01:46 AM 30.5°F-0.8°C 25.4°F-3.7°C 81% 0.5 mph ENE0.8 kmh ENE 1.3 mph2.1 kmh 29.63 in1003.4 mb 0.00 in0.0 mm 0.00 in/hr0.0 mm/hr 0.00 in0.0 mm
01:51 AM 30.9°F-0.6°C 25.5°F-3.6°C 80% 0.4 mph NNE0.6 kmh NNE 1.3 mph2.1 kmh 29.64 in1003.7 mb 0.00 in0.0 mm 0.00 in/hr0.0 mm/hr 0.00 in0.0 mm
01:56 AM 30.9°F-0.6°C 25.5°F-3.6°C 81% 1.3 mph ENE2.1 kmh ENE 1.3 mph2.1 kmh 29.64 in1003.7 mb 0.00 in0.0 mm 0.00 in/hr0.0 mm/hr 0.00 in0.0 mm
02:02 AM 30.9°F-0.6°C 25.5°F-3.6°C 80% 0.4 mph NNW0.6 kmh NNW 1.3 mph2.1 kmh 29.64 in1003.7 mb 0.00 in0.0 mm 0.00 in/hr0.0 mm/hr 0.00 in0.0 mm
02:07 AM 30.3°F-0.9°C 25.2°F-3.8°C 81% Calm Calm 0.4 mph0.6 kmh 29.64 in1003.7 mb 0.00 in0.0 mm 0.00 in/hr0.0 mm/hr 0.00 in0.0 mm
02:12 AM 30.3°F-0.9°C 25.2°F-3.8°C 81% Calm Calm 0.4 mph0.6 kmh 29.64 in1003.7 mb 0.00 in0.0 mm 0.00 in/hr0.0 mm/hr 0.00 in0.0 mm
02:17 AM 30.7°F-0.7°C 25.6°F-3.6°C 81% 2.4 mph ENE3.9 kmh ENE 2.6 mph4.2 kmh 29.64 in1003.7 mb 0.00 in0.0 mm 0.00 in/hr0.0 mm/hr 0.00 in0.0 mm
02:22 AM 31.4°F-0.3°C 25.4°F-3.7°C 78% 2.4 mph ENE3.9 kmh ENE 2.6 mph4.2 kmh 29.65 in1004.1 mb 0.00 in0.0 mm 0.00 in/hr0.0 mm/hr 0.00 in0.0 mm
02:27 AM 31.6°F-0.2°C 25.5°F-3.6°C 78% 1.7 mph E2.7 kmh E 2.6 mph4.2 kmh 29.65 in1004.1 mb 0.00 in0.0 mm 0.00 in/hr0.0 mm/hr 0.00 in0.0 mm
02:32 AM 31.2°F-0.4°C 25.5°F-3.6°C 79% 1.5 mph S2.4 kmh S 1.7 mph2.7 kmh 29.65 in1004.1 mb 0.00 in0.0 mm 0.00 in/hr0.0 mm/hr 0.00 in0.0 mm
02:37 AM 30.2°F-1.0°C 25.0°F-3.9°C 81% 1.7 mph SE2.7 kmh SE 1.7 mph2.7 kmh 29.65 in1004.1 mb 0.00 in0.0 mm 0.00 in/hr0.0 mm/hr 0.00 in0.0 mm
02:42 AM 29.8°F-1.2°C 24.7°F-4.1°C 81% 0.4 mph WNW0.6 kmh WNW 1.7 mph2.7 kmh 29.65 in1004.1 mb 0.00 in0.0 mm 0.00 in/hr0.0 mm/hr 0.00 in0.0 mm
02:47 AM 29.4°F-1.4°C 24.6°F-4.1°C 82% Calm Calm 1.7 mph2.7 kmh 29.65 in1004.1 mb 0.00 in0.0 mm 0.00 in/hr0.0 mm/hr 0.00 in0.0 mm
02:52 AM 29.3°F-1.5°C 24.4°F-4.2°C 82% Calm Calm -- 29.65 in1004.1 mb 0.00 in0.0 mm 0.00 in/hr0.0 mm/hr 0.00 in0.0 mm
02:57 AM 29.3°F-1.5°C 24.4°F-4.2°C 82% Calm Calm -- 29.65 in1004.1 mb 0.00 in0.0 mm 0.00 in/hr0.0 mm/hr 0.00 in0.0 mm
03:02 AM 29.1°F-1.6°C 24.2°F-4.3°C 82% 1.5 mph ENE2.4 kmh ENE 1.5 mph2.4 kmh 29.65 in1004.1 mb 0.00 in0.0 mm 0.00 in/hr0.0 mm/hr 0.00 in0.0 mm
03:07 AM 29.4°F-1.4°C 24.9°F-3.9°C 83% 1.5 mph E2.4 kmh E 3.3 mph5.3 kmh 29.65 in1004.1 mb 0.00 in0.0 mm 0.00 in/hr0.0 mm/hr 0.00 in0.0 mm
03:12 AM 29.8°F-1.2°C 25.3°F-3.7°C 82% 2.5 mph E4.0 kmh E 3.3 mph5.3 kmh 29.65 in1004.1 mb 0.00 in0.0 mm 0.00 in/hr0.0 mm/hr 0.00 in0.0 mm
03:17 AM 30.3°F-0.9°C 25.2°F-3.8°C 81% 0.8 mph NE1.3 kmh NE 3.3 mph5.3 kmh 29.65 in1004.1 mb 0.00 in0.0 mm 0.00 in/hr0.0 mm/hr 0.00 in0.0 mm
03:22 AM 29.8°F-1.2°C 25.0°F-3.9°C 82% 0.4 mph S0.6 kmh S 3.1 mph5.0 kmh 29.65 in1004.1 mb 0.00 in0.0 mm 0.00 in/hr0.0 mm/hr 0.00 in0.0 mm
03:27 AM 29.8°F-1.2°C 25.0°F-3.9°C 82% 0.7 mph NE1.1 kmh NE 1.3 mph2.1 kmh 29.65 in1004.1 mb 0.00 in0.0 mm 0.00 in/hr0.0 mm/hr 0.00 in0.0 mm
03:32 AM 29.3°F-1.5°C 24.4°F-4.2°C 82% 1.5 mph E2.4 kmh E 1.5 mph2.4 kmh 29.65 in1004.1 mb 0.00 in0.0 mm 0.00 in/hr0.0 mm/hr 0.00 in0.0 mm
03:37 AM 29.3°F-1.5°C 24.4°F-4.2°C 82% 1.9 mph ENE3.1 kmh ENE 2.0 mph3.2 kmh 29.66 in1004.4 mb 0.00 in0.0 mm 0.00 in/hr0.0 mm/hr 0.00 in0.0 mm
03:42 AM 29.4°F-1.4°C 24.6°F-4.1°C 83% 1.9 mph E3.1 kmh E 2.4 mph3.9 kmh 29.65 in1004.1 mb 0.00 in0.0 mm 0.00 in/hr0.0 mm/hr 0.00 in0.0 mm
03:47 AM 29.6°F-1.3°C 24.8°F-4.0°C 82% 1.1 mph SSE1.8 kmh SSE 2.4 mph3.9 kmh 29.65 in1004.1 mb 0.00 in0.0 mm 0.00 in/hr0.0 mm/hr 0.00 in0.0 mm
03:52 AM 29.3°F-1.5°C 24.4°F-4.2°C 82% Calm Calm 1.3 mph2.1 kmh 29.65 in1004.1 mb 0.00 in0.0 mm 0.00 in/hr0.0 mm/hr 0.00 in0.0 mm
03:57 AM 29.1°F-1.6°C 24.5°F-4.2°C 83% 0.4 mph S0.6 kmh S 1.1 mph1.8 kmh 29.65 in1004.1 mb 0.00 in0.0 mm 0.00 in/hr0.0 mm/hr 0.00 in0.0 mm
04:02 AM 28.9°F-1.7°C 24.4°F-4.2°C 83% Calm Calm 0.4 mph0.6 kmh 29.65 in1004.1 mb 0.00 in0.0 mm 0.00 in/hr0.0 mm/hr 0.00 in0.0 mm
04:07 AM 29.1°F-1.6°C 24.5°F-4.2°C 83% Calm Calm 2.0 mph3.2 kmh 29.65 in1004.1 mb 0.00 in0.0 mm 0.00 in/hr0.0 mm/hr 0.00 in0.0 mm
04:12 AM 29.4°F-1.4°C 24.6°F-4.1°C 82% 0.8 mph NNE1.3 kmh NNE 2.0 mph3.2 kmh 29.65 in1004.1 mb 0.00 in0.0 mm 0.00 in/hr0.0 mm/hr 0.00 in0.0 mm
04:17 AM 29.3°F-1.5°C 24.4°F-4.2°C 83% 2.1 mph E3.4 kmh E 2.2 mph3.5 kmh 29.65 in1004.1 mb 0.00 in0.0 mm 0.00 in/hr0.0 mm/hr 0.00 in0.0 mm
04:22 AM 29.4°F-1.4°C 24.9°F-3.9°C 83% 0.6 mph E1.0 kmh E 2.2 mph3.5 kmh 29.65 in1004.1 mb 0.00 in0.0 mm 0.00 in/hr0.0 mm/hr 0.00 in0.0 mm
04:27 AM 29.4°F-1.4°C 24.9°F-3.9°C 82% 0.4 mph NE0.6 kmh NE 2.2 mph3.5 kmh 29.65 in1004.1 mb 0.00 in0.0 mm 0.00 in/hr0.0 mm/hr 0.00 in0.0 mm
04:32 AM 29.4°F-1.4°C 24.9°F-3.9°C 82% Calm Calm 0.6 mph1.0 kmh 29.66 in1004.4 mb 0.00 in0.0 mm 0.00 in/hr0.0 mm/hr 0.00 in0.0 mm
04:37 AM 28.9°F-1.7°C 24.4°F-4.2°C 83% 2.0 mph WNW3.2 kmh WNW 2.0 mph3.2 kmh 29.66 in1004.4 mb 0.00 in0.0 mm 0.00 in/hr0.0 mm/hr 0.00 in0.0 mm
04:42 AM 28.2°F-2.1°C 23.6°F-4.7°C 83% 0.8 mph SE1.3 kmh SE 2.0 mph3.2 kmh 29.66 in1004.4 mb 0.00 in0.0 mm 0.00 in/hr0.0 mm/hr 0.00 in0.0 mm
04:47 AM 28.0°F-2.2°C 23.5°F-4.7°C 83% 1.5 mph E2.4 kmh E 2.2 mph3.5 kmh 29.66 in1004.4 mb 0.00 in0.0 mm 0.00 in/hr0.0 mm/hr 0.00 in0.0 mm
04:52 AM 27.8°F-2.3°C 23.6°F-4.7°C 84% Calm Calm 2.2 mph3.5 kmh 29.66 in1004.4 mb 0.00 in0.0 mm 0.00 in/hr0.0 mm/hr 0.00 in0.0 mm
04:57 AM 27.8°F-2.3°C 23.6°F-4.7°C 84% 1.7 mph ESE2.7 kmh ESE 2.2 mph3.5 kmh 29.66 in1004.4 mb 0.00 in0.0 mm 0.00 in/hr0.0 mm/hr 0.00 in0.0 mm
05:02 AM 27.8°F-2.3°C 23.6°F-4.7°C 84% 1.1 mph WNW1.8 kmh WNW 2.2 mph3.5 kmh 29.66 in1004.4 mb 0.00 in0.0 mm 0.00 in/hr0.0 mm/hr 0.00 in0.0 mm
05:07 AM 27.3°F-2.6°C 23.0°F-5.0°C 84% Calm Calm 1.1 mph1.8 kmh 29.67 in1004.7 mb 0.00 in0.0 mm 0.00 in/hr0.0 mm/hr 0.00 in0.0 mm
05:12 AM 27.3°F-2.6°C 23.0°F-5.0°C 84% 0.7 mph E1.1 kmh E 1.3 mph2.1 kmh 29.67 in1004.7 mb 0.00 in0.0 mm 0.00 in/hr0.0 mm/hr 0.00 in0.0 mm
05:17 AM 27.3°F-2.6°C 23.0°F-5.0°C 84% 0.4 mph 0.6 kmh 1.3 mph2.1 kmh 29.67 in1004.7 mb 0.00 in0.0 mm 0.00 in/hr0.0 mm/hr 0.00 in0.0 mm
05:22 AM 27.5°F-2.5°C 23.2°F-4.9°C 84% Calm Calm 1.3 mph2.1 kmh 29.67 in1004.7 mb 0.00 in0.0 mm 0.00 in/hr0.0 mm/hr 0.00 in0.0 mm
05:27 AM 27.6°F-2.4°C 23.4°F-4.8°C 84% Calm Calm 0.4 mph0.6 kmh 29.66 in1004.4 mb 0.00 in0.0 mm 0.00 in/hr0.0 mm/hr 0.00 in0.0 mm
05:32 AM 27.5°F-2.5°C 23.2°F-4.9°C 84% 1.1 mph NE1.8 kmh NE 1.1 mph1.8 kmh 29.67 in1004.7 mb 0.00 in0.0 mm 0.00 in/hr0.0 mm/hr 0.00 in0.0 mm
05:37 AM 27.5°F-2.5°C 23.2°F-4.9°C 84% Calm Calm 1.3 mph2.1 kmh 29.66 in1004.4 mb 0.00 in0.0 mm 0.00 in/hr0.0 mm/hr 0.00 in0.0 mm
05:42 AM 27.5°F-2.5°C 23.2°F-4.9°C 84% Calm Calm 1.3 mph2.1 kmh 29.66 in1004.4 mb 0.00 in0.0 mm 0.00 in/hr0.0 mm/hr 0.00 in0.0 mm
05:47 AM 28.0°F-2.2°C 24.0°F-4.4°C 85% 0.4 mph SE0.6 kmh SE 0.4 mph0.6 kmh 29.67 in1004.7 mb 0.00 in0.0 mm 0.00 in/hr0.0 mm/hr 0.00 in0.0 mm
05:52 AM 28.0°F-2.2°C 24.0°F-4.4°C 85% 0.8 mph NNE1.3 kmh NNE 1.1 mph1.8 kmh 29.67 in1004.7 mb 0.00 in0.0 mm 0.00 in/hr0.0 mm/hr 0.00 in0.0 mm
05:57 AM 28.0°F-2.2°C 24.0°F-4.4°C 85% 1.5 mph NW2.4 kmh NW 2.6 mph4.2 kmh 29.68 in1005.1 mb 0.00 in0.0 mm 0.00 in/hr0.0 mm/hr 0.00 in0.0 mm
06:02 AM 27.8°F-2.3°C 23.6°F-4.7°C 84% Calm Calm 2.6 mph4.2 kmh 29.68 in1005.1 mb 0.00 in0.0 mm 0.00 in/hr0.0 mm/hr 0.00 in0.0 mm
06:07 AM 27.5°F-2.5°C 23.2°F-4.9°C 84% Calm Calm 2.6 mph4.2 kmh 29.68 in1005.1 mb 0.00 in0.0 mm 0.00 in/hr0.0 mm/hr 0.00 in0.0 mm
06:12 AM 27.3°F-2.6°C 23.0°F-5.0°C 84% 1.4 mph E2.3 kmh E 2.0 mph3.2 kmh 29.68 in1005.1 mb 0.00 in0.0 mm 0.00 in/hr0.0 mm/hr 0.00 in0.0 mm
06:17 AM 27.3°F-2.6°C 23.0°F-5.0°C 85% 0.4 mph 0.6 kmh 2.0 mph3.2 kmh 29.68 in1005.1 mb 0.00 in0.0 mm 0.00 in/hr0.0 mm/hr 0.00 in0.0 mm
06:22 AM 27.3°F-2.6°C 23.0°F-5.0°C 84% 1.7 mph ESE2.7 kmh ESE 1.7 mph2.7 kmh 29.68 in1005.1 mb 0.00 in0.0 mm 0.00 in/hr0.0 mm/hr 0.00 in0.0 mm
06:27 AM 27.1°F-2.7°C 23.1°F-4.9°C 85% 1.1 mph E1.8 kmh E 1.7 mph2.7 kmh 29.69 in1005.4 mb 0.00 in0.0 mm 0.00 in/hr0.0 mm/hr 0.00 in0.0 mm
06:32 AM 27.5°F-2.5°C 23.5°F-4.7°C 85% 2.2 mph ESE3.5 kmh ESE 2.6 mph4.2 kmh 29.69 in1005.4 mb 0.00 in0.0 mm 0.00 in/hr0.0 mm/hr 0.00 in0.0 mm
06:37 AM 27.6°F-2.4°C 23.4°F-4.8°C 84% 2.4 mph NNW3.9 kmh NNW 2.6 mph4.2 kmh 29.69 in1005.4 mb 0.00 in0.0 mm 0.00 in/hr0.0 mm/hr 0.00 in0.0 mm
06:42 AM 27.6°F-2.4°C 23.4°F-4.8°C 84% 2.4 mph SE3.9 kmh SE 2.6 mph4.2 kmh 29.69 in1005.4 mb 0.00 in0.0 mm 0.00 in/hr0.0 mm/hr 0.00 in0.0 mm
06:47 AM 27.8°F-2.3°C 23.6°F-4.7°C 84% 2.2 mph NNW3.5 kmh NNW 2.4 mph3.9 kmh 29.69 in1005.4 mb 0.00 in0.0 mm 0.00 in/hr0.0 mm/hr 0.00 in0.0 mm
06:52 AM 28.0°F-2.2°C 24.0°F-4.4°C 85% 1.4 mph NNW2.3 kmh NNW 3.5 mph5.6 kmh 29.70 in1005.8 mb 0.00 in0.0 mm 0.00 in/hr0.0 mm/hr 0.00 in0.0 mm
06:57 AM 28.2°F-2.1°C 24.2°F-4.3°C 85% 1.9 mph NW3.1 kmh NW 3.5 mph5.6 kmh 29.70 in1005.8 mb 0.00 in0.0 mm 0.00 in/hr0.0 mm/hr 0.00 in0.0 mm
07:02 AM 28.2°F-2.1°C 24.2°F-4.3°C 85% 2.2 mph E3.5 kmh E 3.1 mph5.0 kmh 29.70 in1005.8 mb 0.00 in0.0 mm 0.00 in/hr0.0 mm/hr 0.00 in0.0 mm
07:08 AM 28.5°F-1.9°C 24.6°F-4.1°C 85% 1.5 mph NNW2.4 kmh NNW 2.2 mph3.5 kmh 29.70 in1005.8 mb 0.00 in0.0 mm 0.00 in/hr0.0 mm/hr 0.00 in0.0 mm
07:12 AM 28.9°F-1.7°C 24.6°F-4.1°C 84% 0.8 mph N1.3 kmh N 4.9 mph7.9 kmh 29.70 in1005.8 mb 0.00 in0.0 mm 0.00 in/hr0.0 mm/hr 0.00 in0.0 mm
07:17 AM 28.9°F-1.7°C 24.9°F-3.9°C 85% 2.7 mph N4.3 kmh N 4.9 mph7.9 kmh 29.71 in1006.1 mb 0.00 in0.0 mm 0.00 in/hr0.0 mm/hr 0.00 in0.0 mm
07:22 AM 29.4°F-1.4°C 25.2°F-3.8°C 84% 0.9 mph E1.4 kmh E 4.2 mph6.8 kmh 29.71 in1006.1 mb 0.00 in0.0 mm 0.00 in/hr0.0 mm/hr 0.00 in0.0 mm
07:27 AM 29.1°F-1.6°C 24.8°F-4.0°C 84% 0.4 mph NW0.6 kmh NW 4.2 mph6.8 kmh 29.71 in1006.1 mb 0.00 in0.0 mm 0.00 in/hr0.0 mm/hr 0.00 in0.0 mm
07:33 AM 28.9°F-1.7°C 24.6°F-4.1°C 84% 0.5 mph E0.8 kmh E 0.8 mph1.3 kmh 29.71 in1006.1 mb 0.00 in0.0 mm 0.00 in/hr0.0 mm/hr 0.00 in0.0 mm
07:38 AM 28.9°F-1.7°C 24.6°F-4.1°C 84% Calm Calm 0.6 mph1.0 kmh 29.72 in1006.4 mb 0.00 in0.0 mm 0.00 in/hr0.0 mm/hr 0.00 in0.0 mm
07:43 AM 29.1°F-1.6°C 25.1°F-3.8°C 85% 2.3 mph ESE3.7 kmh ESE 2.4 mph3.9 kmh 29.72 in1006.4 mb 0.00 in0.0 mm 0.00 in/hr0.0 mm/hr 0.00 in0.0 mm
07:48 AM 29.1°F-1.6°C 25.1°F-3.8°C 84% 2.0 mph NNW3.2 kmh NNW 2.4 mph3.9 kmh 29.72 in1006.4 mb 0.00 in0.0 mm 0.00 in/hr0.0 mm/hr 0.00 in0.0 mm
07:53 AM 28.9°F-1.7°C 24.6°F-4.1°C 84% Calm Calm 2.0 mph3.2 kmh 29.73 in1006.8 mb 0.00 in0.0 mm 0.00 in/hr0.0 mm/hr 0.00 in0.0 mm
07:58 AM 28.7°F-1.8°C 24.5°F-4.2°C 84% 2.4 mph SE3.9 kmh SE 2.4 mph3.9 kmh 29.72 in1006.4 mb 0.00 in0.0 mm 0.00 in/hr0.0 mm/hr 0.00 in0.0 mm
08:03 AM 28.5°F-1.9°C 24.3°F-4.3°C 85% 0.4 mph E0.6 kmh E 2.4 mph3.9 kmh 29.73 in1006.8 mb 0.00 in0.0 mm 0.00 in/hr0.0 mm/hr 0.00 in0.0 mm
08:08 AM 28.5°F-1.9°C 24.3°F-4.3°C 85% Calm Calm 0.4 mph0.6 kmh 29.73 in1006.8 mb 0.00 in0.0 mm 0.00 in/hr0.0 mm/hr 0.00 in0.0 mm
08:13 AM 28.5°F-1.9°C 24.6°F-4.1°C 85% 1.6 mph ESE2.6 kmh ESE 1.7 mph2.7 kmh 29.72 in1006.4 mb 0.00 in0.0 mm 0.00 in/hr0.0 mm/hr 0.00 in0.0 mm
08:18 AM 28.7°F-1.8°C 24.5°F-4.2°C 84% 1.5 mph 2.4 kmh 1.7 mph2.7 kmh 29.72 in1006.4 mb 0.00 in0.0 mm 0.00 in/hr0.0 mm/hr 0.00 in0.0 mm
08:23 AM 28.7°F-1.8°C 24.5°F-4.2°C 84% 2.3 mph E3.7 kmh E 2.4 mph3.9 kmh 29.73 in1006.8 mb 0.00 in0.0 mm 0.00 in/hr0.0 mm/hr 0.00 in0.0 mm
08:28 AM 28.5°F-1.9°C 24.3°F-4.3°C 84% Calm Calm 2.4 mph3.9 kmh 29.73 in1006.8 mb 0.00 in0.0 mm 0.00 in/hr0.0 mm/hr 0.00 in0.0 mm
08:33 AM 28.4°F-2.0°C 24.1°F-4.4°C 84% Calm Calm 2.4 mph3.9 kmh 29.73 in1006.8 mb 0.00 in0.0 mm 0.00 in/hr0.0 mm/hr 0.00 in0.0 mm
08:38 AM 28.4°F-2.0°C 24.1°F-4.4°C 84% 2.0 mph NNW3.2 kmh NNW 2.0 mph3.2 kmh 29.73 in1006.8 mb 0.00 in0.0 mm 0.00 in/hr0.0 mm/hr 0.00 in0.0 mm
08:43 AM 28.5°F-1.9°C 24.3°F-4.3°C 84% Calm Calm 2.0 mph3.2 kmh 29.73 in1006.8 mb 0.00 in0.0 mm 0.00 in/hr0.0 mm/hr 0.00 in0.0 mm
08:48 AM 28.5°F-1.9°C 24.3°F-4.3°C 85% 2.2 mph E3.5 kmh E 2.4 mph3.9 kmh 29.73 in1006.8 mb 0.00 in0.0 mm 0.00 in/hr0.0 mm/hr 0.00 in0.0 mm
08:53 AM 28.5°F-1.9°C 24.3°F-4.3°C 84% Calm Calm 2.4 mph3.9 kmh 29.73 in1006.8 mb 0.00 in0.0 mm 0.00 in/hr0.0 mm/hr 0.00 in0.0 mm
08:58 AM 28.7°F-1.8°C 24.5°F-4.2°C 84% 2.0 mph NNE3.2 kmh NNE 2.4 mph3.9 kmh 29.73 in1006.8 mb 0.00 in0.0 mm 0.00 in/hr0.0 mm/hr 0.00 in0.0 mm
09:03 AM 28.9°F-1.7°C 24.6°F-4.1°C 84% 2.6 mph ESE4.2 kmh ESE 2.6 mph4.2 kmh 29.74 in1007.1 mb 0.00 in0.0 mm 0.00 in/hr0.0 mm/hr 0.00 in0.0 mm
09:08 AM 28.7°F-1.8°C 24.5°F-4.2°C 84% 0.6 mph 1.0 kmh 2.6 mph4.2 kmh 29.74 in1007.1 mb 0.00 in0.0 mm 0.00 in/hr0.0 mm/hr 0.00 in0.0 mm
09:13 AM 28.7°F-1.8°C 24.5°F-4.2°C 84% 1.4 mph S2.3 kmh S 2.6 mph4.2 kmh 29.74 in1007.1 mb 0.00 in0.0 mm 0.00 in/hr0.0 mm/hr 0.00 in0.0 mm
09:18 AM 28.9°F-1.7°C 24.6°F-4.1°C 84% 0.4 mph SE0.6 kmh SE 2.0 mph3.2 kmh 29.74 in1007.1 mb 0.00 in0.0 mm 0.00 in/hr0.0 mm/hr 0.00 in0.0 mm
09:23 AM 28.9°F-1.7°C 24.6°F-4.1°C 84% 1.5 mph S2.4 kmh S 2.0 mph3.2 kmh 29.74 in1007.1 mb 0.00 in0.0 mm 0.00 in/hr0.0 mm/hr 0.00 in0.0 mm
09:28 AM 28.9°F-1.7°C 24.6°F-4.1°C 84% 2.8 mph SE4.5 kmh SE 2.9 mph4.7 kmh 29.74 in1007.1 mb 0.00 in0.0 mm 0.00 in/hr0.0 mm/hr 0.00 in0.0 mm
09:33 AM 29.4°F-1.4°C 24.9°F-3.9°C 83% 1.3 mph ENE2.1 kmh ENE 2.9 mph4.7 kmh 29.74 in1007.1 mb 0.00 in0.0 mm 0.00 in/hr0.0 mm/hr 0.00 in0.0 mm
09:38 AM 29.8°F-1.2°C 25.3°F-3.7°C 83% Calm Calm 2.9 mph4.7 kmh 29.75 in1007.5 mb 0.00 in0.0 mm 0.00 in/hr0.0 mm/hr 0.00 in0.0 mm
09:43 AM 29.8°F-1.2°C 25.0°F-3.9°C 82% 1.1 mph SSE1.8 kmh SSE 1.1 mph1.8 kmh 29.75 in1007.5 mb 0.00 in0.0 mm 0.00 in/hr0.0 mm/hr 0.00 in0.0 mm
09:48 AM 30.5°F-0.8°C 25.7°F-3.5°C 82% 2.4 mph SSE3.9 kmh SSE 2.4 mph3.9 kmh 29.75 in1007.5 mb 0.00 in0.0 mm 0.00 in/hr0.0 mm/hr 0.00 in0.0 mm
09:53 AM 30.7°F-0.7°C 25.6°F-3.6°C 81% 0.4 mph S0.6 kmh S 2.4 mph3.9 kmh 29.75 in1007.5 mb 0.00 in0.0 mm 0.00 in/hr0.0 mm/hr 0.00 in0.0 mm
09:58 AM 30.9°F-0.6°C 25.8°F-3.4°C 81% 0.6 mph SW1.0 kmh SW 2.4 mph3.9 kmh 29.75 in1007.5 mb 0.00 in0.0 mm 0.00 in/hr0.0 mm/hr 0.00 in0.0 mm
10:03 AM 31.4°F-0.3°C 26.0°F-3.3°C 80% 2.6 mph E4.2 kmh E 2.6 mph4.2 kmh 29.76 in1007.8 mb 0.00 in0.0 mm 0.00 in/hr0.0 mm/hr 0.00 in0.0 mm
10:08 AM 31.8°F-0.1°C 26.0°F-3.3°C 80% 1.5 mph SSE2.4 kmh SSE 2.6 mph4.2 kmh 29.76 in1007.8 mb 0.00 in0.0 mm 0.00 in/hr0.0 mm/hr 0.00 in0.0 mm
10:13 AM 32.3°F0.2°C 26.6°F-3.0°C 79% 1.5 mph SW2.4 kmh SW 2.2 mph3.5 kmh 29.76 in1007.8 mb 0.00 in0.0 mm 0.00 in/hr0.0 mm/hr 0.00 in0.0 mm
10:18 AM 33.4°F0.8°C 27.2°F-2.7°C 78% 1.3 mph SSE2.1 kmh SSE 2.2 mph3.5 kmh 29.76 in1007.8 mb 0.00 in0.0 mm 0.00 in/hr0.0 mm/hr 0.00 in0.0 mm
10:23 AM 34.1°F1.2°C 27.6°F-2.4°C 77% 2.1 mph NW3.4 kmh NW 2.9 mph4.7 kmh 29.76 in1007.8 mb 0.00 in0.0 mm 0.00 in/hr0.0 mm/hr 0.00 in0.0 mm
10:28 AM 34.1°F1.2°C 27.6°F-2.4°C 77% Calm Calm 2.9 mph4.7 kmh 29.77 in1008.1 mb 0.00 in0.0 mm 0.00 in/hr0.0 mm/hr 0.00 in0.0 mm
10:33 AM 33.9°F1.1°C 27.7°F-2.4°C 78% 1.5 mph E2.4 kmh E 2.9 mph4.7 kmh 29.76 in1007.8 mb 0.00 in0.0 mm 0.00 in/hr0.0 mm/hr 0.00 in0.0 mm
10:38 AM 35.0°F1.7°C 28.5°F-1.9°C 77% 3.4 mph SW5.5 kmh SW 3.8 mph6.1 kmh 29.76 in1007.8 mb 0.00 in0.0 mm 0.00 in/hr0.0 mm/hr 0.00 in0.0 mm
10:43 AM 36.3°F2.4°C 28.1°F-2.2°C 72% 6.6 mph SSE10.6 kmh SSE 9.1 mph14.6 kmh 29.74 in1007.1 mb 0.00 in0.0 mm 0.00 in/hr0.0 mm/hr 0.00 in0.0 mm
10:48 AM 37.7°F3.2°C 28.9°F-1.7°C 70% 2.3 mph N3.7 kmh N 9.1 mph14.6 kmh 29.75 in1007.5 mb 0.00 in0.0 mm 0.00 in/hr0.0 mm/hr 0.00 in0.0 mm
10:53 AM 38.6°F3.7°C 29.7°F-1.3°C 70% 4.3 mph ESE6.9 kmh ESE 8.9 mph14.3 kmh 29.75 in1007.5 mb 0.00 in0.0 mm 0.00 in/hr0.0 mm/hr 0.00 in0.0 mm
10:58 AM 39.0°F3.9°C 30.0°F-1.1°C 70% Calm Calm 4.6 mph7.4 kmh 29.76 in1007.8 mb 0.00 in0.0 mm 0.00 in/hr0.0 mm/hr 0.00 in0.0 mm
11:03 AM 40.1°F4.5°C 30.7°F-0.7°C 69% 1.8 mph N2.9 kmh N 4.6 mph7.4 kmh 29.76 in1007.8 mb 0.00 in0.0 mm 0.00 in/hr0.0 mm/hr 0.00 in0.0 mm
11:08 AM 40.6°F4.8°C 30.5°F-0.8°C 67% 2.0 mph ESE3.2 kmh ESE 2.9 mph4.7 kmh 29.75 in1007.5 mb 0.00 in0.0 mm 0.00 in/hr0.0 mm/hr 0.00 in0.0 mm
11:13 AM 41.5°F5.3°C 30.2°F-1.0°C 64% 1.5 mph SW2.4 kmh SW 2.9 mph4.7 kmh 29.75 in1007.5 mb 0.00 in0.0 mm 0.00 in/hr0.0 mm/hr 0.00 in0.0 mm
11:18 AM 42.4°F5.8°C 30.3°F-0.9°C 61% 1.9 mph NNW3.1 kmh NNW 2.9 mph4.7 kmh 29.76 in1007.8 mb 0.00 in0.0 mm 0.00 in/hr0.0 mm/hr 0.00 in0.0 mm
11:23 AM 42.9°F6.1°C 30.4°F-0.9°C 61% 1.9 mph NW3.1 kmh NW 2.4 mph3.9 kmh 29.74 in1007.1 mb 0.00 in0.0 mm 0.00 in/hr0.0 mm/hr 0.00 in0.0 mm
11:28 AM 44.7°F7.1°C 30.0°F-1.1°C 56% 3.8 mph SW6.1 kmh SW 3.8 mph6.1 kmh 29.74 in1007.1 mb 0.00 in0.0 mm 0.00 in/hr0.0 mm/hr 0.00 in0.0 mm
11:33 AM 44.4°F6.9°C 30.1°F-1.1°C 57% 0.6 mph WSW1.0 kmh WSW 11.8 mph19.0 kmh 29.74 in1007.1 mb 0.00 in0.0 mm 0.00 in/hr0.0 mm/hr 0.00 in0.0 mm
11:38 AM 45.3°F7.4°C 31.8°F-0.1°C 59% 1.4 mph WSW2.3 kmh WSW 11.8 mph19.0 kmh 29.75 in1007.5 mb 0.00 in0.0 mm 0.00 in/hr0.0 mm/hr 0.00 in0.0 mm
11:43 AM 44.7°F7.1°C 29.5°F-1.4°C 55% 2.6 mph E4.2 kmh E 5.3 mph8.5 kmh 29.74 in1007.1 mb 0.00 in0.0 mm 0.00 in/hr0.0 mm/hr 0.00 in0.0 mm
11:48 AM 46.0°F7.8°C 30.6°F-0.8°C 55% 3.9 mph 6.3 kmh 4.6 mph7.4 kmh 29.74 in1007.1 mb 0.00 in0.0 mm 0.00 in/hr0.0 mm/hr 0.00 in0.0 mm
11:53 AM 44.4°F6.9°C 31.0°F-0.6°C 59% 6.5 mph S10.5 kmh S 11.4 mph18.3 kmh 29.73 in1006.8 mb 0.00 in0.0 mm 0.00 in/hr0.0 mm/hr 0.00 in0.0 mm
11:58 AM 45.5°F7.5°C 29.3°F-1.5°C 53% 3.5 mph 5.6 kmh 11.4 mph18.3 kmh 29.74 in1007.1 mb 0.00 in0.0 mm 0.00 in/hr0.0 mm/hr 0.00 in0.0 mm
12:03 PM 48.7°F9.3°C 29.2°F-1.6°C 47% 3.0 mph ESE4.8 kmh ESE 11.4 mph18.3 kmh 29.74 in1007.1 mb 0.00 in0.0 mm 0.00 in/hr0.0 mm/hr 0.00 in0.0 mm
12:08 PM 50.0°F10.0°C 28.2°F-2.1°C 43% 0.7 mph NW1.1 kmh NW 3.3 mph5.3 kmh 29.74 in1007.1 mb 0.00 in0.0 mm 0.00 in/hr0.0 mm/hr 0.00 in0.0 mm
12:13 PM 50.0°F10.0°C 29.3°F-1.5°C 45% 1.3 mph WSW2.1 kmh WSW 2.2 mph3.5 kmh 29.74 in1007.1 mb 0.00 in0.0 mm 0.00 in/hr0.0 mm/hr 0.00 in0.0 mm
12:18 PM 51.0°F10.6°C 31.4°F-0.3°C 47% 1.4 mph WNW2.3 kmh WNW 3.1 mph5.0 kmh 29.74 in1007.1 mb 0.00 in0.0 mm 0.00 in/hr0.0 mm/hr 0.00 in0.0 mm
12:23 PM 50.7°F10.4°C 30.5°F-0.8°C 46% 2.5 mph SW4.0 kmh SW 3.3 mph5.3 kmh 29.74 in1007.1 mb 0.00 in0.0 mm 0.00 in/hr0.0 mm/hr 0.00 in0.0 mm
12:28 PM 50.1°F10.1°C 31.2°F-0.4°C 48% 1.7 mph S2.7 kmh S 4.9 mph7.9 kmh 29.74 in1007.1 mb 0.00 in0.0 mm 0.00 in/hr0.0 mm/hr 0.00 in0.0 mm
12:33 PM 50.7°F10.4°C 30.0°F-1.1°C 45% 4.2 mph SW6.8 kmh SW 4.9 mph7.9 kmh 29.74 in1007.1 mb 0.00 in0.0 mm 0.00 in/hr0.0 mm/hr 0.00 in0.0 mm
12:38 PM 51.4°F10.8°C 27.2°F-2.7°C 39% 7.5 mph SSW12.1 kmh SSW 8.2 mph13.2 kmh 29.75 in1007.5 mb 0.00 in0.0 mm 0.00 in/hr0.0 mm/hr 0.00 in0.0 mm
12:44 PM 49.4°F9.7°C 24.7°F-4.1°C 38% 4.0 mph SSW6.4 kmh SSW 9.3 mph15.0 kmh 29.74 in1007.1 mb 0.00 in0.0 mm 0.00 in/hr0.0 mm/hr 0.00 in0.0 mm
12:49 PM 50.1°F10.1°C 25.3°F-3.7°C 38% 4.7 mph SW7.6 kmh SW 9.3 mph15.0 kmh 29.74 in1007.1 mb 0.00 in0.0 mm 0.00 in/hr0.0 mm/hr 0.00 in0.0 mm
12:54 PM 49.8°F9.9°C 25.0°F-3.9°C 38% 5.4 mph S8.7 kmh S 9.3 mph15.0 kmh 29.74 in1007.1 mb 0.00 in0.0 mm 0.00 in/hr0.0 mm/hr 0.00 in0.0 mm
12:59 PM 50.3°F10.2°C 27.4°F-2.6°C 41% 2.9 mph WSW4.7 kmh WSW 7.1 mph11.4 kmh 29.74 in1007.1 mb 0.00 in0.0 mm 0.00 in/hr0.0 mm/hr 0.00 in0.0 mm
01:03 PM 50.5°F10.3°C 22.9°F-5.1°C 34% 2.4 mph W3.9 kmh W 7.1 mph11.4 kmh 29.74 in1007.1 mb 0.00 in0.0 mm 0.00 in/hr0.0 mm/hr 0.00 in0.0 mm
01:08 PM 51.0°F10.6°C 20.7°F-6.3°C 30% 6.9 mph S11.1 kmh S 8.9 mph14.3 kmh 29.74 in1007.1 mb 0.00 in0.0 mm 0.00 in/hr0.0 mm/hr 0.00 in0.0 mm
01:14 PM 50.7°F10.4°C 21.7°F-5.7°C 32% 4.2 mph SW6.8 kmh SW 8.9 mph14.3 kmh 29.74 in1007.1 mb 0.00 in0.0 mm 0.00 in/hr0.0 mm/hr 0.00 in0.0 mm
01:19 PM 51.4°F10.8°C 21.0°F-6.1°C 30% 6.1 mph SW9.8 kmh SW 9.3 mph15.0 kmh 29.74 in1007.1 mb 0.00 in0.0 mm 0.00 in/hr0.0 mm/hr 0.00 in0.0 mm
01:24 PM 49.8°F9.9°C 23.0°F-5.0°C 35% 3.1 mph WSW5.0 kmh WSW 9.3 mph15.0 kmh 29.73 in1006.8 mb 0.00 in0.0 mm 0.00 in/hr0.0 mm/hr 0.00 in0.0 mm
01:29 PM 48.3°F9.1°C 23.8°F-4.6°C 38% 2.5 mph WSW4.0 kmh WSW 9.3 mph15.0 kmh 29.74 in1007.1 mb 0.00 in0.0 mm 0.00 in/hr0.0 mm/hr 0.00 in0.0 mm
01:34 PM 47.8°F8.8°C 24.6°F-4.1°C 40% 2.3 mph NE3.7 kmh NE 3.5 mph5.6 kmh 29.75 in1007.5 mb 0.00 in0.0 mm 0.00 in/hr0.0 mm/hr 0.00 in0.0 mm
01:39 PM 48.0°F8.9°C 22.1°F-5.5°C 36% 4.3 mph SW6.9 kmh SW 4.4 mph7.1 kmh 29.74 in1007.1 mb 0.00 in0.0 mm 0.00 in/hr0.0 mm/hr 0.00 in0.0 mm
01:44 PM 47.8°F8.8°C 21.3°F-5.9°C 36% 1.4 mph NW2.3 kmh NW 4.4 mph7.1 kmh 29.74 in1007.1 mb 0.00 in0.0 mm 0.00 in/hr0.0 mm/hr 0.00 in0.0 mm
01:49 PM 47.8°F8.8°C 21.3°F-5.9°C 35% 3.5 mph SW5.6 kmh SW 4.0 mph6.4 kmh 29.74 in1007.1 mb 0.00 in0.0 mm 0.00 in/hr0.0 mm/hr 0.00 in0.0 mm
01:54 PM 47.8°F8.8°C 21.9°F-5.6°C 37% 2.9 mph W4.7 kmh W 4.6 mph7.4 kmh 29.74 in1007.1 mb 0.00 in0.0 mm 0.00 in/hr0.0 mm/hr 0.00 in0.0 mm
01:59 PM 49.8°F9.9°C 22.3°F-5.4°C 34% 4.4 mph NW7.1 kmh NW 10.7 mph17.2 kmh 29.74 in1007.1 mb 0.00 in0.0 mm 0.00 in/hr0.0 mm/hr 0.00 in0.0 mm
02:03 PM 50.3°F10.2°C 21.4°F-5.9°C 32% 6.4 mph SW10.3 kmh SW 11.8 mph19.0 kmh 29.74 in1007.1 mb 0.00 in0.0 mm 0.00 in/hr0.0 mm/hr 0.00 in0.0 mm
02:09 PM 51.0°F10.6°C 20.7°F-6.3°C 30% 7.9 mph SW12.7 kmh SW 11.8 mph19.0 kmh 29.74 in1007.1 mb 0.00 in0.0 mm 0.00 in/hr0.0 mm/hr 0.00 in0.0 mm
02:14 PM 51.6°F10.9°C 23.9°F-4.5°C 34% 1.4 mph SSW2.3 kmh SSW 11.1 mph17.9 kmh 29.74 in1007.1 mb 0.00 in0.0 mm 0.00 in/hr0.0 mm/hr 0.00 in0.0 mm
02:19 PM 52.5°F11.4°C 23.3°F-4.8°C 32% 3.2 mph SSE5.1 kmh SSE 6.0 mph9.7 kmh 29.74 in1007.1 mb 0.00 in0.0 mm 0.00 in/hr0.0 mm/hr 0.00 in0.0 mm
02:24 PM 51.6°F10.9°C 21.9°F-5.6°C 31% 5.2 mph W8.4 kmh W 6.7 mph10.8 kmh 29.74 in1007.1 mb 0.00 in0.0 mm 0.00 in/hr0.0 mm/hr 0.00 in0.0 mm
02:29 PM 51.4°F10.8°C 23.7°F-4.6°C 34% 3.8 mph SSW6.1 kmh SSW 6.7 mph10.8 kmh 29.74 in1007.1 mb 0.00 in0.0 mm 0.00 in/hr0.0 mm/hr 0.00 in0.0 mm
02:34 PM 51.0°F10.6°C 22.1°F-5.5°C 32% 3.6 mph NW5.8 kmh NW 6.0 mph9.7 kmh 29.73 in1006.8 mb 0.00 in0.0 mm 0.00 in/hr0.0 mm/hr 0.00 in0.0 mm
02:39 PM 50.7°F10.4°C 22.4°F-5.3°C 32% 2.6 mph ESE4.2 kmh ESE 4.6 mph7.4 kmh 29.75 in1007.5 mb 0.00 in0.0 mm 0.00 in/hr0.0 mm/hr 0.00 in0.0 mm
02:44 PM 51.4°F10.8°C 22.4°F-5.3°C 32% 4.5 mph SW7.2 kmh SW 7.6 mph12.2 kmh 29.75 in1007.5 mb 0.00 in0.0 mm 0.00 in/hr0.0 mm/hr 0.00 in0.0 mm
02:49 PM 51.4°F10.8°C 21.0°F-6.1°C 30% 3.9 mph ESE6.3 kmh ESE 7.6 mph12.2 kmh 29.75 in1007.5 mb 0.00 in0.0 mm 0.00 in/hr0.0 mm/hr 0.00 in0.0 mm
02:54 PM 51.6°F10.9°C 21.9°F-5.6°C 33% 4.0 mph WSW6.4 kmh WSW 6.9 mph11.1 kmh 29.75 in1007.5 mb 0.00 in0.0 mm 0.00 in/hr0.0 mm/hr 0.00 in0.0 mm
02:59 PM 51.0°F10.6°C 22.1°F-5.5°C 32% 4.6 mph S7.4 kmh S 8.5 mph13.7 kmh 29.75 in1007.5 mb 0.00 in0.0 mm 0.00 in/hr0.0 mm/hr 0.00 in0.0 mm
03:04 PM 50.7°F10.4°C 22.4°F-5.3°C 34% 1.7 mph N2.7 kmh N 8.5 mph13.7 kmh 29.75 in1007.5 mb 0.00 in0.0 mm 0.00 in/hr0.0 mm/hr 0.00 in0.0 mm
03:09 PM 50.1°F10.1°C 22.6°F-5.2°C 34% 2.4 mph SE3.9 kmh SE 8.5 mph13.7 kmh 29.75 in1007.5 mb 0.00 in0.0 mm 0.00 in/hr0.0 mm/hr 0.00 in0.0 mm
03:14 PM 50.7°F10.4°C 23.8°F-4.6°C 35% 1.6 mph NW2.6 kmh NW 4.6 mph7.4 kmh 29.75 in1007.5 mb 0.00 in0.0 mm 0.00 in/hr0.0 mm/hr 0.00 in0.0 mm
03:19 PM 50.5°F10.3°C 20.2°F-6.6°C 30% 4.0 mph S6.4 kmh S 6.4 mph10.3 kmh 29.76 in1007.8 mb 0.00 in0.0 mm 0.00 in/hr0.0 mm/hr 0.00 in0.0 mm
03:24 PM 49.2°F9.6°C 21.8°F-5.7°C 34% 4.2 mph NNW6.8 kmh NNW 6.4 mph10.3 kmh 29.76 in1007.8 mb 0.00 in0.0 mm 0.00 in/hr0.0 mm/hr 0.00 in0.0 mm
03:29 PM 48.3°F9.1°C 20.4°F-6.4°C 33% 3.5 mph S5.6 kmh S 6.0 mph9.7 kmh 29.76 in1007.8 mb 0.00 in0.0 mm 0.00 in/hr0.0 mm/hr 0.00 in0.0 mm
03:34 PM 47.4°F8.6°C 19.0°F-7.2°C 32% 3.5 mph S5.6 kmh S 5.5 mph8.9 kmh 29.76 in1007.8 mb 0.00 in0.0 mm 0.00 in/hr0.0 mm/hr 0.00 in0.0 mm
03:39 PM 46.9°F8.3°C 20.5°F-6.4°C 35% 3.8 mph WSW6.1 kmh WSW 5.5 mph8.9 kmh 29.77 in1008.1 mb 0.00 in0.0 mm 0.00 in/hr0.0 mm/hr 0.00 in0.0 mm
03:44 PM 46.5°F8.1°C 21.5°F-5.8°C 37% 2.8 mph S4.5 kmh S 7.8 mph12.6 kmh 29.77 in1008.1 mb 0.00 in0.0 mm 0.00 in/hr0.0 mm/hr 0.00 in0.0 mm
03:49 PM 46.2°F7.9°C 21.8°F-5.7°C 40% 5.8 mph WSW9.3 kmh WSW 8.2 mph13.2 kmh 29.76 in1007.8 mb 0.00 in0.0 mm 0.00 in/hr0.0 mm/hr 0.00 in0.0 mm
03:54 PM 46.2°F7.9°C 21.8°F-5.7°C 37% 2.7 mph SW4.3 kmh SW 8.2 mph13.2 kmh 29.77 in1008.1 mb 0.00 in0.0 mm 0.00 in/hr0.0 mm/hr 0.00 in0.0 mm
03:59 PM 46.0°F7.8°C 21.7°F-5.7°C 39% 0.4 mph WSW0.6 kmh WSW 3.5 mph5.6 kmh 29.77 in1008.1 mb 0.00 in0.0 mm 0.00 in/hr0.0 mm/hr 0.00 in0.0 mm
04:04 PM 45.3°F7.4°C 22.3°F-5.4°C 41% 1.8 mph SE2.9 kmh SE 6.4 mph10.3 kmh 29.77 in1008.1 mb 0.00 in0.0 mm 0.00 in/hr0.0 mm/hr 0.00 in0.0 mm
04:09 PM 44.7°F7.1°C 22.4°F-5.3°C 41% 1.1 mph WNW1.8 kmh WNW 6.4 mph10.3 kmh 29.78 in1008.5 mb 0.00 in0.0 mm 0.00 in/hr0.0 mm/hr 0.00 in0.0 mm
04:14 PM 44.7°F7.1°C 21.2°F-6.0°C 39% 4.5 mph S7.2 kmh S 6.2 mph10.0 kmh 29.78 in1008.5 mb 0.00 in0.0 mm 0.00 in/hr0.0 mm/hr 0.00 in0.0 mm
04:19 PM 44.7°F7.1°C 21.2°F-6.0°C 41% 1.1 mph SW1.8 kmh SW 6.2 mph10.0 kmh 29.78 in1008.5 mb 0.00 in0.0 mm 0.00 in/hr0.0 mm/hr 0.00 in0.0 mm
04:24 PM 44.6°F7.0°C 21.0°F-6.1°C 39% 1.5 mph SSW2.4 kmh SSW 2.4 mph3.9 kmh 29.78 in1008.5 mb 0.00 in0.0 mm 0.00 in/hr0.0 mm/hr 0.00 in0.0 mm
04:29 PM 44.2°F6.8°C 20.7°F-6.3°C 41% 0.4 mph S0.6 kmh S 1.5 mph2.4 kmh 29.79 in1008.8 mb 0.00 in0.0 mm 0.00 in/hr0.0 mm/hr 0.00 in0.0 mm
04:35 PM 43.7°F6.5°C 22.0°F-5.6°C 42% 0.4 mph WNW0.6 kmh WNW 0.4 mph0.6 kmh 29.79 in1008.8 mb 0.00 in0.0 mm 0.00 in/hr0.0 mm/hr 0.00 in0.0 mm
04:39 PM 43.5°F6.4°C 22.3°F-5.4°C 43% 1.1 mph NNW1.8 kmh NNW 1.1 mph1.8 kmh 29.79 in1008.8 mb 0.00 in0.0 mm 0.00 in/hr0.0 mm/hr 0.00 in0.0 mm
04:45 PM 44.7°F7.1°C 21.9°F-5.6°C 40% 4.0 mph E6.4 kmh E 5.3 mph8.5 kmh 29.80 in1009.1 mb 0.00 in0.0 mm 0.00 in/hr0.0 mm/hr 0.00 in0.0 mm
04:50 PM 44.2°F6.8°C 21.9°F-5.6°C 41% 0.4 mph NE0.6 kmh NE 5.3 mph8.5 kmh 29.80 in1009.1 mb 0.00 in0.0 mm 0.00 in/hr0.0 mm/hr 0.00 in0.0 mm
04:55 PM 44.4°F6.9°C 20.9°F-6.2°C 39% 2.1 mph SW3.4 kmh SW 4.0 mph6.4 kmh 29.80 in1009.1 mb 0.00 in0.0 mm 0.00 in/hr0.0 mm/hr 0.00 in0.0 mm
05:00 PM 44.4°F6.9°C 20.9°F-6.2°C 38% 0.4 mph SW0.6 kmh SW 4.0 mph6.4 kmh 29.80 in1009.1 mb 0.00 in0.0 mm 0.00 in/hr0.0 mm/hr 0.00 in0.0 mm
05:05 PM 44.2°F6.8°C 19.4°F-7.0°C 38% 0.6 mph NW1.0 kmh NW 0.6 mph1.0 kmh 29.80 in1009.1 mb 0.00 in0.0 mm 0.00 in/hr0.0 mm/hr 0.00 in0.0 mm
05:10 PM 42.9°F6.1°C 22.9°F-5.1°C 45% 1.5 mph 2.4 kmh 1.7 mph2.7 kmh 29.80 in1009.1 mb 0.00 in0.0 mm 0.00 in/hr0.0 mm/hr 0.00 in0.0 mm
05:15 PM 41.7°F5.4°C 23.3°F-4.8°C 48% Calm Calm 1.7 mph2.7 kmh 29.80 in1009.1 mb 0.00 in0.0 mm 0.00 in/hr0.0 mm/hr 0.00 in0.0 mm
05:20 PM 40.8°F4.9°C 24.0°F-4.4°C 51% 1.1 mph NNE1.8 kmh NNE 1.1 mph1.8 kmh 29.80 in1009.1 mb 0.00 in0.0 mm 0.00 in/hr0.0 mm/hr 0.00 in0.0 mm
05:25 PM 39.7°F4.3°C 23.9°F-4.5°C 53% 0.8 mph E1.3 kmh E 2.0 mph3.2 kmh 29.80 in1009.1 mb 0.00 in0.0 mm 0.00 in/hr0.0 mm/hr 0.00 in0.0 mm
05:30 PM 39.3°F4.1°C 23.1°F-4.9°C 52% 1.5 mph NNE2.4 kmh NNE 2.0 mph3.2 kmh 29.80 in1009.1 mb 0.00 in0.0 mm 0.00 in/hr0.0 mm/hr 0.00 in0.0 mm
05:35 PM 39.3°F4.1°C 23.1°F-4.9°C 54% 0.4 mph NE0.6 kmh NE 1.5 mph2.4 kmh 29.80 in1009.1 mb 0.00 in0.0 mm 0.00 in/hr0.0 mm/hr 0.00 in0.0 mm
05:40 PM 38.8°F3.8°C 23.0°F-5.0°C 53% 2.4 mph ENE3.9 kmh ENE 2.4 mph3.9 kmh 29.80 in1009.1 mb 0.00 in0.0 mm 0.00 in/hr0.0 mm/hr 0.00 in0.0 mm
05:48 PM 39.3°F4.1°C 23.5°F-4.7°C 52% Calm Calm 2.4 mph3.9 kmh 29.80 in1009.1 mb 0.00 in0.0 mm 0.00 in/hr0.0 mm/hr 0.00 in0.0 mm
05:55 PM 38.8°F3.8°C 22.6°F-5.2°C 53% 1.2 mph NE1.9 kmh NE 1.3 mph2.1 kmh 29.80 in1009.1 mb 0.00 in0.0 mm 0.00 in/hr0.0 mm/hr 0.00 in0.0 mm
06:01 PM 38.6°F3.7°C 22.9°F-5.1°C 53% 0.4 mph NE0.6 kmh NE 1.3 mph2.1 kmh 29.80 in1009.1 mb 0.00 in0.0 mm 0.00 in/hr0.0 mm/hr 0.00 in0.0 mm
06:06 PM 38.4°F3.6°C 23.6°F-4.7°C 55% 1.0 mph ENE1.6 kmh ENE 1.1 mph1.8 kmh 29.81 in1009.5 mb 0.00 in0.0 mm 0.00 in/hr0.0 mm/hr 0.00 in0.0 mm
06:11 PM 38.6°F3.7°C 22.4°F-5.3°C 54% 0.4 mph E0.6 kmh E 1.1 mph1.8 kmh 29.81 in1009.5 mb 0.00 in0.0 mm 0.00 in/hr0.0 mm/hr 0.00 in0.0 mm
06:16 PM 38.4°F3.6°C 22.7°F-5.2°C 55% 0.4 mph NE0.6 kmh NE 0.6 mph1.0 kmh 29.80 in1009.1 mb 0.00 in0.0 mm 0.00 in/hr0.0 mm/hr 0.00 in0.0 mm
06:21 PM 38.4°F3.6°C 24.0°F-4.4°C 55% Calm Calm 0.4 mph0.6 kmh 29.81 in1009.5 mb 0.00 in0.0 mm 0.00 in/hr0.0 mm/hr 0.00 in0.0 mm
06:26 PM 38.6°F3.7°C 23.3°F-4.8°C 54% 1.0 mph ENE1.6 kmh ENE 1.5 mph2.4 kmh 29.81 in1009.5 mb 0.00 in0.0 mm 0.00 in/hr0.0 mm/hr 0.00 in0.0 mm
06:31 PM 38.8°F3.8°C 23.9°F-4.5°C 56% 1.3 mph ENE2.1 kmh ENE 1.5 mph2.4 kmh 29.81 in1009.5 mb 0.00 in0.0 mm 0.00 in/hr0.0 mm/hr 0.00 in0.0 mm
06:36 PM 39.0°F3.9°C 24.1°F-4.4°C 56% 0.5 mph NNE0.8 kmh NNE 1.3 mph2.1 kmh 29.82 in1009.8 mb 0.00 in0.0 mm 0.00 in/hr0.0 mm/hr 0.00 in0.0 mm
06:41 PM 39.3°F4.1°C 24.4°F-4.2°C 55% 1.3 mph ENE2.1 kmh ENE 1.3 mph2.1 kmh 29.82 in1009.8 mb 0.00 in0.0 mm 0.00 in/hr0.0 mm/hr 0.00 in0.0 mm
06:46 PM 39.5°F4.2°C 25.0°F-3.9°C 56% 0.4 mph E0.6 kmh E 1.3 mph2.1 kmh 29.83 in1010.2 mb 0.00 in0.0 mm 0.00 in/hr0.0 mm/hr 0.00 in0.0 mm
06:51 PM 39.7°F4.3°C 23.9°F-4.5°C 54% Calm Calm 1.3 mph2.1 kmh 29.83 in1010.2 mb 0.00 in0.0 mm 0.00 in/hr0.0 mm/hr 0.00 in0.0 mm
06:58 PM 39.9°F4.4°C 24.0°F-4.4°C 53% 0.4 mph ENE0.6 kmh ENE 0.6 mph1.0 kmh 29.84 in1010.5 mb 0.00 in0.0 mm 0.00 in/hr0.0 mm/hr 0.00 in0.0 mm
07:06 PM 39.7°F4.3°C 24.3°F-4.3°C 55% 2.0 mph E3.2 kmh E 3.1 mph5.0 kmh 29.84 in1010.5 mb 0.00 in0.0 mm 0.00 in/hr0.0 mm/hr 0.00 in0.0 mm
07:13 PM 39.5°F4.2°C 24.1°F-4.4°C 54% 1.9 mph E3.1 kmh E 3.1 mph5.0 kmh 29.84 in1010.5 mb 0.00 in0.0 mm 0.00 in/hr0.0 mm/hr 0.00 in0.0 mm
07:18 PM 39.3°F4.1°C 24.4°F-4.2°C 56% 0.6 mph ESE1.0 kmh ESE 2.0 mph3.2 kmh 29.84 in1010.5 mb 0.00 in0.0 mm 0.00 in/hr0.0 mm/hr 0.00 in0.0 mm
07:23 PM 38.8°F3.8°C 23.9°F-4.5°C 55% Calm Calm 2.0 mph3.2 kmh 29.84 in1010.5 mb 0.00 in0.0 mm 0.00 in/hr0.0 mm/hr 0.00 in0.0 mm
07:28 PM 38.4°F3.6°C 25.3°F-3.7°C 59% Calm Calm -- 29.84 in1010.5 mb 0.00 in0.0 mm 0.00 in/hr0.0 mm/hr 0.00 in0.0 mm
07:33 PM 38.1°F3.4°C 24.5°F-4.2°C 58% 0.4 mph E0.6 kmh E 0.4 mph0.6 kmh 29.84 in1010.5 mb 0.00 in0.0 mm 0.00 in/hr0.0 mm/hr 0.00 in0.0 mm
07:38 PM 37.9°F3.3°C 24.8°F-4.0°C 59% Calm Calm 0.4 mph0.6 kmh 29.84 in1010.5 mb 0.00 in0.0 mm 0.00 in/hr0.0 mm/hr 0.00 in0.0 mm
07:43 PM 37.7°F3.2°C 24.2°F-4.3°C 58% 0.6 mph ENE1.0 kmh ENE 0.6 mph1.0 kmh 29.84 in1010.5 mb 0.00 in0.0 mm 0.00 in/hr0.0 mm/hr 0.00 in0.0 mm
07:48 PM 37.7°F3.2°C 24.6°F-4.1°C 59% Calm Calm 0.6 mph1.0 kmh 29.85 in1010.8 mb 0.00 in0.0 mm 0.00 in/hr0.0 mm/hr 0.00 in0.0 mm
07:53 PM 37.5°F3.1°C 25.3°F-3.7°C 58% Calm Calm 0.6 mph1.0 kmh 29.85 in1010.8 mb 0.00 in0.0 mm 0.00 in/hr0.0 mm/hr 0.00 in0.0 mm
07:58 PM 37.7°F3.2°C 24.2°F-4.3°C 58% Calm Calm -- 29.85 in1010.8 mb 0.00 in0.0 mm 0.00 in/hr0.0 mm/hr 0.00 in0.0 mm
08:04 PM 37.7°F3.2°C 24.2°F-4.3°C 59% Calm Calm -- 29.85 in1010.8 mb 0.00 in0.0 mm 0.00 in/hr0.0 mm/hr 0.00 in0.0 mm
08:09 PM 37.9°F3.3°C 24.8°F-4.0°C 57% 0.4 mph ENE0.6 kmh ENE 1.3 mph2.1 kmh 29.86 in1011.2 mb 0.00 in0.0 mm 0.00 in/hr0.0 mm/hr 0.00 in0.0 mm
08:14 PM 38.1°F3.4°C 23.2°F-4.9°C 58% 0.8 mph ENE1.3 kmh ENE 1.3 mph2.1 kmh 29.86 in1011.2 mb 0.00 in0.0 mm 0.00 in/hr0.0 mm/hr 0.00 in0.0 mm
08:19 PM 38.1°F3.4°C 23.2°F-4.9°C 57% Calm Calm 0.8 mph1.3 kmh 29.86 in1011.2 mb 0.00 in0.0 mm 0.00 in/hr0.0 mm/hr 0.00 in0.0 mm
08:24 PM 38.1°F3.4°C 23.2°F-4.9°C 57% Calm Calm 0.8 mph1.3 kmh 29.86 in1011.2 mb 0.00 in0.0 mm 0.00 in/hr0.0 mm/hr 0.00 in0.0 mm
08:29 PM 38.1°F3.4°C 23.2°F-4.9°C 58% Calm Calm 0.8 mph1.3 kmh 29.86 in1011.2 mb 0.00 in0.0 mm 0.00 in/hr0.0 mm/hr 0.00 in0.0 mm
08:35 PM 38.1°F3.4°C 23.2°F-4.9°C 59% 1.4 mph E2.3 kmh E 3.3 mph5.3 kmh 29.86 in1011.2 mb 0.00 in0.0 mm 0.00 in/hr0.0 mm/hr 0.00 in0.0 mm
08:40 PM 38.3°F3.5°C 24.7°F-4.1°C 58% 2.4 mph E3.9 kmh E 3.3 mph5.3 kmh 29.86 in1011.2 mb 0.00 in0.0 mm 0.00 in/hr0.0 mm/hr 0.00 in0.0 mm
08:45 PM 38.6°F3.7°C 24.2°F-4.3°C 56% 1.9 mph E3.1 kmh E 3.3 mph5.3 kmh 29.86 in1011.2 mb 0.00 in0.0 mm 0.00 in/hr0.0 mm/hr 0.00 in0.0 mm
08:50 PM 38.8°F3.8°C 24.3°F-4.3°C 56% 1.5 mph E2.4 kmh E 2.9 mph4.7 kmh 29.86 in1011.2 mb 0.00 in0.0 mm 0.00 in/hr0.0 mm/hr 0.00 in0.0 mm
08:56 PM 38.8°F3.8°C 24.3°F-4.3°C 59% 1.3 mph E2.1 kmh E 2.0 mph3.2 kmh 29.86 in1011.2 mb 0.00 in0.0 mm 0.00 in/hr0.0 mm/hr 0.00 in0.0 mm
09:01 PM 38.4°F3.6°C 24.4°F-4.2°C 57% 1.9 mph ESE3.1 kmh ESE 2.2 mph3.5 kmh 29.86 in1011.2 mb 0.00 in0.0 mm 0.00 in/hr0.0 mm/hr 0.00 in0.0 mm
09:06 PM 38.3°F3.5°C 25.6°F-3.6°C 60% Calm Calm 2.2 mph3.5 kmh 29.87 in1011.5 mb 0.00 in0.0 mm 0.00 in/hr0.0 mm/hr 0.00 in0.0 mm
09:11 PM 37.5°F3.1°C 26.0°F-3.3°C 63% 0.4 mph SSW0.6 kmh SSW 1.3 mph2.1 kmh 29.87 in1011.5 mb 0.00 in0.0 mm 0.00 in/hr0.0 mm/hr 0.00 in0.0 mm
09:16 PM 36.6°F2.6°C 26.0°F-3.3°C 65% Calm Calm 1.3 mph2.1 kmh 29.87 in1011.5 mb 0.00 in0.0 mm 0.00 in/hr0.0 mm/hr 0.00 in0.0 mm
09:20 PM 36.3°F2.4°C 25.6°F-3.6°C 65% 0.4 mph E0.6 kmh E 1.3 mph2.1 kmh 29.87 in1011.5 mb 0.00 in0.0 mm 0.00 in/hr0.0 mm/hr 0.00 in0.0 mm
09:26 PM 36.1°F2.3°C 25.4°F-3.7°C 65% Calm Calm 0.4 mph0.6 kmh 29.87 in1011.5 mb 0.00 in0.0 mm 0.00 in/hr0.0 mm/hr 0.00 in0.0 mm
09:31 PM 36.1°F2.3°C 25.4°F-3.7°C 67% 0.8 mph ENE1.3 kmh ENE 0.8 mph1.3 kmh 29.87 in1011.5 mb 0.00 in0.0 mm 0.00 in/hr0.0 mm/hr 0.00 in0.0 mm
09:36 PM 36.1°F2.3°C 25.4°F-3.7°C 66% Calm Calm 0.8 mph1.3 kmh 29.87 in1011.5 mb 0.00 in0.0 mm 0.00 in/hr0.0 mm/hr 0.00 in0.0 mm
09:41 PM 36.1°F2.3°C 25.4°F-3.7°C 65% Calm Calm -- 29.87 in1011.5 mb 0.00 in0.0 mm 0.00 in/hr0.0 mm/hr 0.00 in0.0 mm
09:46 PM 36.3°F2.4°C 25.6°F-3.6°C 65% Calm Calm -- 29.88 in1011.9 mb 0.00 in0.0 mm 0.00 in/hr0.0 mm/hr 0.00 in0.0 mm
09:51 PM 36.5°F2.5°C 25.0°F-3.9°C 63% Calm Calm -- 29.88 in1011.9 mb 0.00 in0.0 mm 0.00 in/hr0.0 mm/hr 0.00 in0.0 mm
09:56 PM 36.5°F2.5°C 25.8°F-3.4°C 65% Calm Calm -- 29.88 in1011.9 mb 0.00 in0.0 mm 0.00 in/hr0.0 mm/hr 0.00 in0.0 mm
10:01 PM 36.6°F2.6°C 26.0°F-3.3°C 63% Calm Calm -- 29.88 in1011.9 mb 0.00 in0.0 mm 0.00 in/hr0.0 mm/hr 0.00 in0.0 mm
10:06 PM 36.6°F2.6°C 26.0°F-3.3°C 63% Calm Calm -- 29.88 in1011.9 mb 0.00 in0.0 mm 0.00 in/hr0.0 mm/hr 0.00 in0.0 mm
10:11 PM 37.0°F2.8°C 25.6°F-3.6°C 65% Calm Calm -- 29.87 in1011.5 mb 0.00 in0.0 mm 0.00 in/hr0.0 mm/hr 0.00 in0.0 mm
10:16 PM 37.0°F2.8°C 25.6°F-3.6°C 63% Calm Calm -- 29.87 in1011.5 mb 0.00 in0.0 mm 0.00 in/hr0.0 mm/hr 0.00 in0.0 mm
10:21 PM 36.6°F2.6°C 26.0°F-3.3°C 65% Calm Calm -- 29.87 in1011.5 mb 0.00 in0.0 mm 0.00 in/hr0.0 mm/hr 0.00 in0.0 mm
10:26 PM 37.0°F2.8°C 25.9°F-3.4°C 64% Calm Calm 1.5 mph2.4 kmh 29.87 in1011.5 mb 0.00 in0.0 mm 0.00 in/hr0.0 mm/hr 0.00 in0.0 mm
10:31 PM 37.0°F2.8°C 25.9°F-3.4°C 64% Calm Calm 1.5 mph2.4 kmh 29.87 in1011.5 mb 0.00 in0.0 mm 0.00 in/hr0.0 mm/hr 0.00 in0.0 mm
10:37 PM 37.0°F2.8°C 25.9°F-3.4°C 66% Calm Calm -- 29.87 in1011.5 mb 0.00 in0.0 mm 0.00 in/hr0.0 mm/hr 0.00 in0.0 mm
10:45 PM 36.6°F2.6°C 26.0°F-3.3°C 67% Calm Calm -- 29.87 in1011.5 mb 0.00 in0.0 mm 0.00 in/hr0.0 mm/hr 0.00 in0.0 mm
10:52 PM 37.2°F2.9°C 27.2°F-2.7°C 67% 1.9 mph E3.1 kmh E 2.0 mph3.2 kmh 29.86 in1011.2 mb 0.00 in0.0 mm 0.00 in/hr0.0 mm/hr 0.00 in0.0 mm
10:58 PM 37.5°F3.1°C 27.9°F-2.3°C 66% Calm Calm 2.0 mph3.2 kmh 29.87 in1011.5 mb 0.00 in0.0 mm 0.00 in/hr0.0 mm/hr 0.00 in0.0 mm
11:03 PM 37.5°F3.1°C 27.9°F-2.3°C 65% Calm Calm 1.1 mph1.8 kmh 29.87 in1011.5 mb 0.00 in0.0 mm 0.00 in/hr0.0 mm/hr 0.00 in0.0 mm
11:08 PM 37.5°F3.1°C 27.9°F-2.3°C 66% Calm Calm -- 29.86 in1011.2 mb 0.00 in0.0 mm 0.00 in/hr0.0 mm/hr 0.00 in0.0 mm
11:15 PM 37.5°F3.1°C 27.9°F-2.3°C 66% Calm Calm -- 29.86 in1011.2 mb 0.00 in0.0 mm 0.00 in/hr0.0 mm/hr 0.00 in0.0 mm
11:21 PM 37.7°F3.2°C 27.7°F-2.4°C 67% Calm Calm 0.4 mph0.6 kmh 29.86 in1011.2 mb 0.00 in0.0 mm 0.00 in/hr0.0 mm/hr 0.00 in0.0 mm
11:26 PM 37.7°F3.2°C 27.3°F-2.6°C 66% Calm Calm 0.4 mph0.6 kmh 29.86 in1011.2 mb 0.00 in0.0 mm 0.00 in/hr0.0 mm/hr 0.00 in0.0 mm
11:31 PM 37.7°F3.2°C 27.3°F-2.6°C 66% Calm Calm -- 29.86 in1011.2 mb 0.00 in0.0 mm 0.00 in/hr0.0 mm/hr 0.00 in0.0 mm
11:38 PM 37.5°F3.1°C 27.6°F-2.4°C 67% Calm Calm -- 29.85 in1010.8 mb 0.00 in0.0 mm 0.00 in/hr0.0 mm/hr 0.00 in0.0 mm
11:45 PM 37.2°F2.9°C 28.0°F-2.2°C 69% Calm Calm -- 29.86 in1011.2 mb 0.00 in0.0 mm 0.00 in/hr0.0 mm/hr 0.00 in0.0 mm
11:50 PM 36.6°F2.6°C 27.8°F-2.3°C 69% Calm Calm -- 29.86 in1011.2 mb 0.00 in0.0 mm 0.00 in/hr0.0 mm/hr 0.00 in0.0 mm
11:55 PM 36.1°F2.3°C 27.9°F-2.3°C 72% 0.4 mph WNW0.6 kmh WNW 0.4 mph0.6 kmh 29.86 in1011.2 mb 0.00 in0.0 mm 0.00 in/hr0.0 mm/hr 0.00 in0.0 mm